createdAt,value
2023-03-05T00:01:14.802Z,2.26
2023-03-05T00:02:47.742Z,2.28
2023-03-05T00:04:19.139Z,2.70
2023-03-05T00:05:50.415Z,2.44
2023-03-05T00:07:21.665Z,2.28
2023-03-05T00:08:53.365Z,2.44
2023-03-05T00:10:25.176Z,2.39
2023-03-05T00:11:56.410Z,2.67
2023-03-05T00:13:27.848Z,2.52
2023-03-05T00:14:59.314Z,3.14
2023-03-05T00:16:30.845Z,2.73
2023-03-05T00:18:02.193Z,2.96
2023-03-05T00:19:34.047Z,2.38
2023-03-05T00:21:05.550Z,2.50
2023-03-05T00:22:37.131Z,2.47
2023-03-05T00:24:09.980Z,2.47
2023-03-05T00:25:41.343Z,2.66
2023-03-05T00:27:12.618Z,2.84
2023-03-05T00:28:44.090Z,2.84
2023-03-05T00:30:15.654Z,2.66
2023-03-05T00:31:46.875Z,3.27
2023-03-05T00:33:18.311Z,2.76
2023-03-05T00:34:49.875Z,3.16
2023-03-05T00:36:21.315Z,3.07
2023-03-05T00:37:52.930Z,3.16
2023-03-05T00:39:24.378Z,3.02
2023-03-05T00:40:55.701Z,3.19
2023-03-05T00:42:27.241Z,2.79
2023-03-05T00:43:58.617Z,3.04
2023-03-05T00:45:30.060Z,3.12
2023-03-05T00:47:01.370Z,3.46
2023-03-05T00:48:32.712Z,3.31
2023-03-05T00:50:03.898Z,3.42
2023-03-05T00:51:35.406Z,3.27
2023-03-05T00:53:06.742Z,3.03
2023-03-05T00:54:38.220Z,3.43
2023-03-05T00:56:09.823Z,3.38
2023-03-05T00:57:41.291Z,2.79
2023-03-05T00:59:12.844Z,2.79
2023-03-05T01:00:44.169Z,3.00
2023-03-05T01:02:16.596Z,3.22
2023-03-05T01:03:48.068Z,3.12
2023-03-05T01:05:19.842Z,3.71
2023-03-05T01:06:51.208Z,3.74
2023-03-05T01:08:22.632Z,3.09
2023-03-05T01:09:53.971Z,3.08
2023-03-05T01:11:25.317Z,3.17
2023-03-05T01:12:57.656Z,3.27
2023-03-05T01:14:29.477Z,3.22
2023-03-05T01:16:00.992Z,3.22
2023-03-05T01:17:32.549Z,3.09
2023-03-05T01:19:03.967Z,3.48
2023-03-05T01:20:35.342Z,3.15
2023-03-05T01:22:06.533Z,3.11
2023-03-05T01:23:37.873Z,3.12
2023-03-05T01:25:09.082Z,3.15
2023-03-05T01:26:40.282Z,3.32
2023-03-05T01:28:11.591Z,3.33
2023-03-05T01:29:42.933Z,3.34
2023-03-05T01:31:14.861Z,3.40
2023-03-05T01:32:46.211Z,3.81
2023-03-05T01:34:17.475Z,3.06
2023-03-05T01:35:48.823Z,3.06
2023-03-05T01:37:20.169Z,3.27
2023-03-05T01:38:51.376Z,2.77
2023-03-05T01:40:22.618Z,2.88
2023-03-05T01:41:54.050Z,2.88
2023-03-05T01:43:25.385Z,2.65
2023-03-05T01:44:56.600Z,3.03
2023-03-05T01:46:27.887Z,2.81
2023-03-05T01:47:59.073Z,2.74
2023-03-05T01:49:30.433Z,3.37
2023-03-05T01:51:02.027Z,3.15
2023-03-05T01:52:33.270Z,2.88
2023-03-05T01:54:04.691Z,3.00
2023-03-05T01:55:35.941Z,3.26
2023-03-05T01:57:07.233Z,2.80
2023-03-05T01:58:38.484Z,2.90
2023-03-05T02:00:09.871Z,2.67
2023-03-05T02:01:41.415Z,2.64
2023-03-05T02:03:12.653Z,2.80
2023-03-05T02:04:43.950Z,3.00
2023-03-05T02:06:15.477Z,3.19
2023-03-05T02:07:46.838Z,3.03
2023-03-05T02:09:18.164Z,3.08
2023-03-05T02:10:49.587Z,3.29
2023-03-05T02:12:21.031Z,3.13
2023-03-05T02:13:52.241Z,3.16
2023-03-05T02:15:23.519Z,3.43
2023-03-05T02:16:54.869Z,3.08
2023-03-05T02:18:26.241Z,3.76
2023-03-05T02:19:57.779Z,3.82
2023-03-05T02:21:29.110Z,4.24
2023-03-05T02:23:00.624Z,4.48
2023-03-05T02:24:32.070Z,4.72
2023-03-05T02:26:03.460Z,5.08
2023-03-05T02:27:34.727Z,5.37
2023-03-05T02:29:06.196Z,5.58
2023-03-05T02:30:37.965Z,5.67
2023-03-05T02:32:09.522Z,6.17
2023-03-05T02:33:41.040Z,6.04
2023-03-05T02:35:12.304Z,6.13
2023-03-05T02:36:43.679Z,5.64
2023-03-05T02:38:15.089Z,6.23
2023-03-05T02:39:46.420Z,6.28
2023-03-05T02:41:17.684Z,6.31
2023-03-05T02:42:49.235Z,6.21
2023-03-05T02:44:20.719Z,6.96
2023-03-05T02:45:52.052Z,6.81
2023-03-05T02:47:23.431Z,6.56
2023-03-05T02:48:54.743Z,6.13
2023-03-05T02:50:26.201Z,5.53
2023-03-05T02:51:58.163Z,5.35
2023-03-05T02:53:29.462Z,5.38
2023-03-05T02:55:00.712Z,5.36
2023-03-05T02:56:31.904Z,5.31
2023-03-05T02:58:03.449Z,4.93
2023-03-05T02:59:34.801Z,4.76
2023-03-05T03:01:06.292Z,4.71
2023-03-05T03:02:37.613Z,4.19
2023-03-05T03:04:09.036Z,4.36
2023-03-05T03:05:40.440Z,4.18
2023-03-05T03:07:11.928Z,3.88
2023-03-05T03:08:43.292Z,3.68
2023-03-05T03:10:14.574Z,3.44
2023-03-05T03:11:45.968Z,3.03
2023-03-05T03:13:17.188Z,2.89
2023-03-05T03:14:49.133Z,2.71
2023-03-05T03:16:20.396Z,2.62
2023-03-05T03:17:51.842Z,2.94
2023-03-05T03:19:23.227Z,2.75
2023-03-05T03:20:54.685Z,2.40
2023-03-05T03:22:26.099Z,2.54
2023-03-05T03:23:57.386Z,2.55
2023-03-05T03:25:28.826Z,2.86
2023-03-05T03:27:00.288Z,2.69
2023-03-05T03:28:31.531Z,2.64
2023-03-05T03:30:03.005Z,2.44
2023-03-05T03:31:34.513Z,2.84
2023-03-05T03:33:06.047Z,2.50
2023-03-05T03:34:38.392Z,2.45
2023-03-05T03:36:10.278Z,2.28
2023-03-05T03:37:41.827Z,2.07
2023-03-05T03:39:14.482Z,2.38
2023-03-05T03:40:45.768Z,2.44
2023-03-05T03:42:16.933Z,2.47
2023-03-05T03:43:48.511Z,2.45
2023-03-05T03:45:19.715Z,2.28
2023-03-05T03:46:51.398Z,2.60
2023-03-05T03:48:22.673Z,2.56
2023-03-05T03:49:53.953Z,3.08
2023-03-05T03:51:25.148Z,3.07
2023-03-05T03:52:56.352Z,2.92
2023-03-05T03:54:27.773Z,3.32
2023-03-05T03:55:59.142Z,3.06
2023-03-05T03:57:30.441Z,3.44
2023-03-05T03:59:01.759Z,4.08
2023-03-05T04:00:33.036Z,4.79
2023-03-05T04:02:04.625Z,4.99
2023-03-05T04:03:36.362Z,4.69
2023-03-05T04:05:12.787Z,4.79
2023-03-05T04:06:44.528Z,5.01
2023-03-05T04:08:16.038Z,5.42
2023-03-05T04:09:48.767Z,4.74
2023-03-05T04:11:20.365Z,4.89
2023-03-05T04:12:51.828Z,5.16
2023-03-05T04:14:23.379Z,4.71
2023-03-05T04:15:54.896Z,4.49
2023-03-05T04:17:26.537Z,4.29
2023-03-05T04:18:58.065Z,4.41
2023-03-05T04:20:29.763Z,4.55
2023-03-05T04:22:01.316Z,4.61
2023-03-05T04:23:32.860Z,4.47
2023-03-05T04:25:04.223Z,4.08
2023-03-05T04:26:35.480Z,4.27
2023-03-05T04:28:06.879Z,3.93
2023-03-05T04:29:38.319Z,3.64
2023-03-05T04:31:09.782Z,3.94
2023-03-05T04:32:41.420Z,4.30
2023-03-05T04:34:12.614Z,5.16
2023-03-05T04:35:44.081Z,4.74
2023-03-05T04:37:15.376Z,4.68
2023-03-05T04:38:46.809Z,4.60
2023-03-05T04:40:18.034Z,5.53
2023-03-05T04:41:49.365Z,5.16
2023-03-05T04:43:20.608Z,5.76
2023-03-05T04:44:52.016Z,6.51
2023-03-05T04:46:23.336Z,5.84
2023-03-05T04:47:54.870Z,6.54
2023-03-05T04:49:26.253Z,5.96
2023-03-05T04:50:57.648Z,5.67
2023-03-05T04:52:29.142Z,7.09
2023-03-05T04:54:00.573Z,7.38
2023-03-05T04:55:31.963Z,6.73
2023-03-05T04:57:03.148Z,6.77
2023-03-05T04:58:34.563Z,5.74
2023-03-05T05:00:05.922Z,5.93
2023-03-05T05:01:37.198Z,6.01
2023-03-05T05:03:08.610Z,6.27
2023-03-05T05:04:39.865Z,6.48
2023-03-05T05:06:11.201Z,6.62
2023-03-05T05:07:42.848Z,6.48
2023-03-05T05:09:14.229Z,6.22
2023-03-05T05:10:45.501Z,6.49
2023-03-05T05:12:16.715Z,6.78
2023-03-05T05:13:48.073Z,6.91
2023-03-05T05:15:19.285Z,7.35
2023-03-05T05:16:50.760Z,7.57
2023-03-05T05:18:22.288Z,7.37
2023-03-05T05:19:53.624Z,7.79
2023-03-05T05:21:24.847Z,6.93
2023-03-05T05:22:56.264Z,7.74
2023-03-05T05:24:32.704Z,7.39
2023-03-05T05:26:04.537Z,5.98
2023-03-05T05:27:36.282Z,6.73
2023-03-05T05:29:07.447Z,6.24
2023-03-05T05:30:38.633Z,6.96
2023-03-05T05:32:10.002Z,6.65
2023-03-05T05:33:41.751Z,6.80
2023-03-05T05:35:13.316Z,6.64
2023-03-05T05:36:44.916Z,6.14
2023-03-05T05:38:16.434Z,4.97
2023-03-05T05:39:47.703Z,4.94
2023-03-05T05:41:19.536Z,4.50
2023-03-05T05:42:50.934Z,4.58
2023-03-05T05:44:22.582Z,5.06
2023-03-05T05:45:54.088Z,5.34
2023-03-05T05:47:25.399Z,5.76
2023-03-05T05:48:56.615Z,6.20
2023-03-05T05:50:27.941Z,6.85
2023-03-05T05:51:59.295Z,6.65
2023-03-05T05:53:30.794Z,7.23
2023-03-05T05:55:02.038Z,7.59
2023-03-05T05:56:33.407Z,8.38
2023-03-05T05:58:04.700Z,8.59
2023-03-05T05:59:36.243Z,8.60
2023-03-05T06:01:07.559Z,8.76
2023-03-05T06:02:38.858Z,7.86
2023-03-05T06:04:10.228Z,9.10
2023-03-05T06:05:41.577Z,7.88
2023-03-05T06:07:12.808Z,7.88
2023-03-05T06:08:44.175Z,8.24
2023-03-05T06:10:15.406Z,9.12
2023-03-05T06:11:46.773Z,9.11
2023-03-05T06:13:17.972Z,8.66
2023-03-05T06:14:49.432Z,9.62
2023-03-05T06:16:20.732Z,9.84
2023-03-05T06:17:52.221Z,9.54
2023-03-05T06:19:23.770Z,10.09
2023-03-05T06:20:55.397Z,9.61
2023-03-05T06:22:27.046Z,9.45
2023-03-05T06:23:58.599Z,10.05
2023-03-05T06:25:30.212Z,10.56
2023-03-05T06:27:01.858Z,11.32
2023-03-05T06:28:33.203Z,11.86
2023-03-05T06:30:04.410Z,11.65
2023-03-05T06:31:37.325Z,11.91
2023-03-05T06:33:08.755Z,12.70
2023-03-05T06:34:40.107Z,12.74
2023-03-05T06:36:11.340Z,13.18
2023-03-05T06:37:42.920Z,13.57
2023-03-05T06:39:14.563Z,13.89
2023-03-05T06:40:46.079Z,13.35
2023-03-05T06:42:17.491Z,13.20
2023-03-05T06:43:48.845Z,14.06
2023-03-05T06:45:20.253Z,13.24
2023-03-05T06:46:51.883Z,12.31
2023-03-05T06:48:23.232Z,13.32
2023-03-05T06:49:54.559Z,12.07
2023-03-05T06:51:25.969Z,12.11
2023-03-05T06:52:57.324Z,10.09
2023-03-05T06:54:28.792Z,10.24
2023-03-05T06:56:00.204Z,10.75
2023-03-05T06:57:31.586Z,11.36
2023-03-05T06:59:02.839Z,11.14
2023-03-05T07:00:34.282Z,11.03
2023-03-05T07:02:05.513Z,11.98
2023-03-05T07:03:36.985Z,11.73
2023-03-05T07:05:08.207Z,12.67
2023-03-05T07:06:39.853Z,12.81
2023-03-05T07:08:35.907Z,13.55
2023-03-05T07:10:07.254Z,14.18
2023-03-05T07:11:38.687Z,14.22
2023-03-05T07:13:09.892Z,13.02
2023-03-05T07:14:41.312Z,13.75
2023-03-05T07:16:12.811Z,14.30
2023-03-05T07:17:44.389Z,14.40
2023-03-05T07:19:15.646Z,14.04
2023-03-05T07:20:46.846Z,14.71
2023-03-05T07:22:18.349Z,14.29
2023-03-05T07:23:51.009Z,13.73
2023-03-05T07:25:22.192Z,13.62
2023-03-05T07:26:53.457Z,13.50
2023-03-05T07:28:24.965Z,13.51
2023-03-05T07:29:57.894Z,13.88
2023-03-05T07:31:29.092Z,13.56
2023-03-05T07:33:00.431Z,13.20
2023-03-05T07:34:31.914Z,12.93
2023-03-05T07:36:03.313Z,13.25
2023-03-05T07:37:34.693Z,12.83
2023-03-05T07:39:05.892Z,12.95
2023-03-05T07:40:37.179Z,13.05
2023-03-05T07:42:08.568Z,12.08
2023-03-05T07:43:39.808Z,11.97
2023-03-05T07:45:11.116Z,12.31
2023-03-05T07:46:42.397Z,11.79
2023-03-05T07:48:13.742Z,11.46
2023-03-05T07:49:44.901Z,11.78
2023-03-05T07:51:16.203Z,11.38
2023-03-05T07:52:47.747Z,11.10
2023-03-05T07:54:19.107Z,9.29
2023-03-05T07:55:50.697Z,9.47
2023-03-05T07:57:22.225Z,9.73
2023-03-05T07:58:53.589Z,9.72
2023-03-05T08:00:24.841Z,9.17
2023-03-05T08:01:56.276Z,7.91
2023-03-05T08:03:27.518Z,7.38
2023-03-05T08:04:58.827Z,8.82
2023-03-05T08:06:30.167Z,9.23
2023-03-05T08:08:01.508Z,9.36
2023-03-05T08:09:32.950Z,8.68
2023-03-05T08:11:04.563Z,10.88
2023-03-05T08:12:36.025Z,9.63
2023-03-05T08:14:07.437Z,9.75
2023-03-05T08:15:38.799Z,9.01
2023-03-05T08:17:10.075Z,8.72
2023-03-05T08:18:41.360Z,9.95
2023-03-05T08:20:12.547Z,10.58
2023-03-05T08:21:43.787Z,10.28
2023-03-05T08:23:15.100Z,9.20
2023-03-05T08:24:46.357Z,8.50
2023-03-05T08:26:17.890Z,9.56
2023-03-05T08:27:49.287Z,10.07
2023-03-05T08:29:20.623Z,9.34
2023-03-05T08:30:52.111Z,11.16
2023-03-05T08:32:23.776Z,11.42
2023-03-05T08:33:55.232Z,10.64
2023-03-05T08:35:26.687Z,9.79
2023-03-05T08:36:58.018Z,9.81
2023-03-05T08:38:29.607Z,10.67
2023-03-05T08:40:01.002Z,10.80
2023-03-05T08:41:32.194Z,10.72
2023-03-05T08:43:03.382Z,9.10
2023-03-05T08:44:34.646Z,7.77
2023-03-05T08:46:05.981Z,8.87
2023-03-05T08:47:37.374Z,8.53
2023-03-05T08:49:08.624Z,7.61
2023-03-05T08:50:40.107Z,6.48
2023-03-05T08:52:11.348Z,6.33
2023-03-05T08:54:19.589Z,6.51
2023-03-05T08:56:01.220Z,7.94
2023-03-05T08:57:32.764Z,8.92
2023-03-05T08:59:03.934Z,9.40
2023-03-05T09:00:35.203Z,10.07
2023-03-05T09:02:06.474Z,9.90
2023-03-05T09:03:38.092Z,9.84
2023-03-05T09:05:09.462Z,9.03
2023-03-05T09:06:40.697Z,10.69
2023-03-05T09:08:11.958Z,10.37
2023-03-05T09:09:43.320Z,9.75
2023-03-05T09:11:14.735Z,9.58
2023-03-05T09:12:46.043Z,8.47
2023-03-05T09:14:17.362Z,8.18
2023-03-05T09:15:48.676Z,8.44
2023-03-05T09:17:20.056Z,8.69
2023-03-05T09:18:51.390Z,8.63
2023-03-05T09:20:22.659Z,8.73
2023-03-05T09:21:56.911Z,9.50
2023-03-05T09:23:28.312Z,10.14
2023-03-05T09:24:59.674Z,11.60
2023-03-05T09:26:30.917Z,9.75
2023-03-05T09:28:03.271Z,10.51
2023-03-05T09:29:34.735Z,12.42
2023-03-05T09:31:06.365Z,13.88
2023-03-05T09:32:37.799Z,13.19
2023-03-05T09:34:09.231Z,10.16
2023-03-05T09:35:41.002Z,11.42
2023-03-05T09:37:12.334Z,10.16
2023-03-05T09:38:43.870Z,11.70
2023-03-05T09:40:15.498Z,11.05
2023-03-05T09:41:47.258Z,10.73
2023-03-05T09:43:18.945Z,9.04
2023-03-05T09:44:50.174Z,8.42
2023-03-05T09:46:21.417Z,9.74
2023-03-05T09:47:53.058Z,10.39
2023-03-05T09:49:24.308Z,9.49
2023-03-05T09:50:55.555Z,8.53
2023-03-05T09:52:27.076Z,9.82
2023-03-05T09:53:58.350Z,10.11
2023-03-05T09:55:29.639Z,9.73
2023-03-05T09:57:00.962Z,7.91
2023-03-05T09:58:32.210Z,9.13
2023-03-05T10:00:03.405Z,9.29
2023-03-05T10:01:34.603Z,7.32
2023-03-05T10:03:05.943Z,6.78
2023-03-05T10:04:37.326Z,8.63
2023-03-05T10:06:08.640Z,9.86
2023-03-05T10:07:40.017Z,10.10
2023-03-05T10:09:11.434Z,11.18
2023-03-05T10:10:42.890Z,12.28
2023-03-05T10:12:19.360Z,12.40
2023-03-05T10:13:55.761Z,13.37
2023-03-05T10:15:27.288Z,13.29
2023-03-05T10:16:58.565Z,12.58
2023-03-05T10:18:29.776Z,13.43
2023-03-05T10:20:01.214Z,14.47
2023-03-05T10:21:40.141Z,14.69
2023-03-05T10:23:11.563Z,15.05
2023-03-05T10:24:42.824Z,15.13
2023-03-05T10:26:14.116Z,14.10
2023-03-05T10:27:45.562Z,14.56
2023-03-05T10:29:17.090Z,14.91
2023-03-05T10:30:48.466Z,15.75
2023-03-05T10:32:19.962Z,15.62
2023-03-05T10:33:51.419Z,15.77
2023-03-05T10:35:23.723Z,15.56
2023-03-05T10:36:57.849Z,15.63
2023-03-05T10:38:29.712Z,15.77
2023-03-05T10:40:01.047Z,14.76
2023-03-05T10:41:32.398Z,14.64
2023-03-05T10:43:03.830Z,14.55
2023-03-05T10:44:35.060Z,14.13
2023-03-05T10:46:06.676Z,14.93
2023-03-05T10:47:38.403Z,14.11
2023-03-05T10:49:09.743Z,8.89
2023-03-05T10:50:41.042Z,9.45
2023-03-05T10:52:12.284Z,11.56
2023-03-05T10:53:43.560Z,10.76
2023-03-05T10:55:15.282Z,10.86
2023-03-05T10:56:46.743Z,11.68
2023-03-05T10:58:19.213Z,11.61
2023-03-05T10:59:50.643Z,10.36
2023-03-05T11:01:22.004Z,10.51
2023-03-05T11:02:53.649Z,10.90
2023-03-05T11:04:25.050Z,11.09
2023-03-05T11:06:01.837Z,10.69
2023-03-05T11:07:33.718Z,11.33
2023-03-05T11:09:05.053Z,11.14
2023-03-05T11:10:36.524Z,11.24
2023-03-05T11:12:07.853Z,10.75
2023-03-05T11:13:39.214Z,10.59
2023-03-05T11:15:10.572Z,10.64
2023-03-05T11:16:41.880Z,9.34
2023-03-05T11:18:13.038Z,8.96
2023-03-05T11:19:44.468Z,9.76
2023-03-05T11:21:16.090Z,9.81
2023-03-05T11:22:47.337Z,10.70
2023-03-05T11:24:19.000Z,9.19
2023-03-05T11:25:50.473Z,9.60
2023-03-05T11:27:21.692Z,9.37
2023-03-05T11:28:53.032Z,8.79
2023-03-05T11:30:29.543Z,8.81
2023-03-05T11:32:00.849Z,8.63
2023-03-05T11:33:32.128Z,8.48
2023-03-05T11:35:03.902Z,7.54
2023-03-05T11:36:35.674Z,8.07
2023-03-05T11:38:06.857Z,6.43
2023-03-05T11:39:38.156Z,7.00
2023-03-05T11:41:09.682Z,7.21
2023-03-05T11:42:41.011Z,7.06
2023-03-05T11:44:13.594Z,6.35
2023-03-05T11:45:45.033Z,6.04
2023-03-05T11:47:16.483Z,5.54
2023-03-05T11:48:48.228Z,5.25
2023-03-05T11:50:19.711Z,5.69
2023-03-05T11:51:51.122Z,4.83
2023-03-05T11:53:22.433Z,5.14
2023-03-05T11:54:53.806Z,5.54
2023-03-05T11:56:25.291Z,5.12
2023-03-05T11:57:56.804Z,4.42
2023-03-05T11:59:28.099Z,3.45
2023-03-05T12:00:59.753Z,4.12
2023-03-05T12:02:31.310Z,4.22
2023-03-05T12:04:02.675Z,3.79
2023-03-05T12:05:33.951Z,4.09
2023-03-05T12:07:10.198Z,3.70
2023-03-05T12:08:41.536Z,3.76
2023-03-05T12:10:12.877Z,4.23
2023-03-05T12:11:44.728Z,4.74
2023-03-05T12:13:16.239Z,4.68
2023-03-05T12:14:48.012Z,5.19
2023-03-05T12:16:20.935Z,5.28
2023-03-05T12:17:52.313Z,5.97
2023-03-05T12:19:23.650Z,5.97
2023-03-05T12:20:59.990Z,4.98
2023-03-05T12:22:31.612Z,4.80
2023-03-05T12:24:17.978Z,5.03
2023-03-05T12:25:54.809Z,5.11
2023-03-05T12:27:55.754Z,5.09
2023-03-05T12:29:27.254Z,5.53
2023-03-05T12:30:58.894Z,5.48
2023-03-05T12:32:44.395Z,4.45
2023-03-05T12:34:16.762Z,4.21
2023-03-05T12:35:49.489Z,5.00
2023-03-05T12:37:20.811Z,5.20
2023-03-05T12:38:52.559Z,5.84
2023-03-05T12:40:24.122Z,6.09
2023-03-05T12:42:16.408Z,5.61
2023-03-05T12:43:47.662Z,5.63
2023-03-05T12:45:29.055Z,5.19
2023-03-05T12:47:10.296Z,5.14
2023-03-05T12:48:41.904Z,5.34
2023-03-05T12:50:13.180Z,5.32
2023-03-05T12:51:44.864Z,5.35
2023-03-05T12:53:27.960Z,5.76
2023-03-05T12:54:59.409Z,5.67
2023-03-05T12:56:35.981Z,5.92
2023-03-05T12:58:22.327Z,6.56
2023-03-05T13:00:08.776Z,6.17
2023-03-05T13:01:40.356Z,6.08
2023-03-05T13:03:16.791Z,6.20
2023-03-05T13:04:58.183Z,6.26
2023-03-05T13:06:29.716Z,6.01
2023-03-05T13:08:11.191Z,6.42
2023-03-05T13:09:42.507Z,7.42
2023-03-05T13:11:23.974Z,7.22
2023-03-05T13:13:06.332Z,7.35
2023-03-05T13:14:47.857Z,7.83
2023-03-05T13:16:19.498Z,7.97
2023-03-05T13:18:18.225Z,7.92
2023-03-05T13:20:01.714Z,7.96
2023-03-05T13:21:43.193Z,7.12
2023-03-05T13:23:34.499Z,7.00
2023-03-05T13:25:10.959Z,6.45
2023-03-05T13:26:42.262Z,7.01
2023-03-05T13:28:13.708Z,6.54
2023-03-05T13:30:02.668Z,6.90
2023-03-05T13:31:34.416Z,6.90
2023-03-05T13:33:25.776Z,7.35
2023-03-05T13:35:11.058Z,7.44
2023-03-05T13:36:42.401Z,7.13
2023-03-05T13:38:13.802Z,7.14
2023-03-05T13:39:45.090Z,6.92
2023-03-05T13:41:16.884Z,6.79
2023-03-05T13:42:48.173Z,6.92
2023-03-05T13:44:19.576Z,6.40
2023-03-05T13:45:56.153Z,5.49
2023-03-05T13:47:27.454Z,5.18
2023-03-05T13:48:58.757Z,5.08
2023-03-05T13:50:30.052Z,5.13
2023-03-05T13:52:01.347Z,4.93
2023-03-05T13:53:32.699Z,5.05
2023-03-05T13:55:03.953Z,4.79
2023-03-05T13:56:35.315Z,5.22
2023-03-05T13:58:06.672Z,4.41
2023-03-05T13:59:37.995Z,4.72
2023-03-05T14:01:09.322Z,5.05
2023-03-05T14:02:40.839Z,5.11
2023-03-05T14:04:12.140Z,4.85
2023-03-05T14:05:43.558Z,5.20
2023-03-05T14:07:15.598Z,4.81
2023-03-05T14:08:47.002Z,4.93
2023-03-05T14:10:18.827Z,5.03
2023-03-05T14:12:22.382Z,4.75
2023-03-05T14:13:53.818Z,5.14
2023-03-05T14:15:25.298Z,5.38
2023-03-05T14:16:56.826Z,5.61
2023-03-05T14:18:28.084Z,5.26
2023-03-05T14:20:17.038Z,5.38
2023-03-05T14:21:48.925Z,5.19
2023-03-05T14:23:26.431Z,5.53
2023-03-05T14:24:59.363Z,5.62
2023-03-05T14:26:36.245Z,5.40
2023-03-05T14:28:07.588Z,5.37
2023-03-05T14:30:05.500Z,5.15
2023-03-05T14:31:37.270Z,4.90
2023-03-05T14:33:09.013Z,5.18
2023-03-05T14:34:41.034Z,5.08
2023-03-05T14:36:12.777Z,5.88
2023-03-05T14:38:12.000Z,5.46
2023-03-05T14:39:46.191Z,5.44
2023-03-05T14:41:22.995Z,5.05
2023-03-05T14:42:54.269Z,5.05
2023-03-05T14:44:25.652Z,5.20
2023-03-05T14:46:17.032Z,5.72
2023-03-05T14:47:48.627Z,5.34
2023-03-05T14:49:30.318Z,5.24
2023-03-05T14:51:01.905Z,5.33
2023-03-05T14:52:33.606Z,5.44
2023-03-05T14:54:05.477Z,5.35
2023-03-05T14:55:37.025Z,5.26
2023-03-05T14:57:09.007Z,5.34
2023-03-05T14:58:40.437Z,5.48
2023-03-05T15:00:11.916Z,5.46
2023-03-05T15:01:43.282Z,5.38
2023-03-05T15:03:14.619Z,5.66
2023-03-05T15:04:45.901Z,5.52
2023-03-05T15:06:37.740Z,5.24
2023-03-05T15:08:09.116Z,5.41
2023-03-05T15:09:40.989Z,5.70
2023-03-05T15:11:13.907Z,6.06
2023-03-05T15:12:45.822Z,6.36
2023-03-05T15:14:17.249Z,6.37
2023-03-05T15:15:48.939Z,6.74
2023-03-05T15:17:20.443Z,6.15
2023-03-05T15:18:52.076Z,5.88
2023-03-05T15:20:23.614Z,6.03
2023-03-05T15:21:55.285Z,5.79
2023-03-05T15:23:31.930Z,6.43
2023-03-05T15:25:03.493Z,6.76
2023-03-05T15:26:35.018Z,6.56
2023-03-05T15:28:06.380Z,6.78
2023-03-05T15:29:38.013Z,6.80
2023-03-05T15:31:14.558Z,7.16
2023-03-05T15:32:45.977Z,7.54
2023-03-05T15:34:17.387Z,8.64
2023-03-05T15:35:48.736Z,9.59
2023-03-05T15:37:20.400Z,9.73
2023-03-05T15:38:51.816Z,9.59
2023-03-05T15:40:33.192Z,10.38
2023-03-05T15:42:24.998Z,10.46
2023-03-05T15:43:56.354Z,10.45
2023-03-05T15:45:27.813Z,10.92
2023-03-05T15:46:59.105Z,10.94
2023-03-05T15:48:30.431Z,10.49
2023-03-05T15:50:01.712Z,10.37
2023-03-05T15:51:32.975Z,9.86
2023-03-05T15:53:04.223Z,9.70
2023-03-05T15:54:35.589Z,9.08
2023-03-05T15:56:06.981Z,9.35
2023-03-05T15:57:38.378Z,9.01
2023-03-05T15:59:09.764Z,8.60
2023-03-05T16:00:41.114Z,9.14
2023-03-05T16:02:12.574Z,9.30
2023-03-05T16:03:44.064Z,9.44
2023-03-05T16:05:15.523Z,9.32
2023-03-05T16:06:46.763Z,9.61
2023-03-05T16:08:18.029Z,8.82
2023-03-05T16:09:49.308Z,7.50
2023-03-05T16:11:20.629Z,7.26
2023-03-05T16:12:51.976Z,5.98
2023-03-05T16:14:23.467Z,5.64
2023-03-05T16:15:54.777Z,5.78
2023-03-05T16:17:26.317Z,5.78
2023-03-05T16:18:57.697Z,6.27
2023-03-05T16:20:29.444Z,6.00
2023-03-05T16:22:01.510Z,6.17
2023-03-05T16:23:32.825Z,5.43
2023-03-05T16:25:04.255Z,6.40
2023-03-05T16:26:35.558Z,6.18
2023-03-05T16:28:07.133Z,6.18
2023-03-05T16:29:38.609Z,6.94
2023-03-05T16:31:09.870Z,6.60
2023-03-05T16:32:41.294Z,6.70
2023-03-05T16:34:12.506Z,6.68
2023-03-05T16:35:43.848Z,6.97
2023-03-05T16:37:15.084Z,6.80
2023-03-05T16:38:46.542Z,7.54
2023-03-05T16:40:17.821Z,7.59
2023-03-05T16:41:49.083Z,7.91
2023-03-05T16:43:20.417Z,7.80
2023-03-05T16:44:51.732Z,7.72
2023-03-05T16:46:23.084Z,8.16
2023-03-05T16:47:54.301Z,7.20
2023-03-05T16:49:25.552Z,7.80
2023-03-05T16:50:56.845Z,7.64
2023-03-05T16:52:33.537Z,8.00
2023-03-05T16:54:05.054Z,7.73
2023-03-05T16:55:36.633Z,7.54
2023-03-05T16:57:08.641Z,6.65
2023-03-05T16:58:40.355Z,7.21
2023-03-05T17:00:11.877Z,6.80
2023-03-05T17:01:43.679Z,6.98
2023-03-05T17:03:15.332Z,6.86
2023-03-05T17:04:46.603Z,6.00
2023-03-05T17:06:18.062Z,7.13
2023-03-05T17:07:55.656Z,7.40
2023-03-05T17:09:27.427Z,7.35
2023-03-05T17:11:04.162Z,8.53
2023-03-05T17:12:35.709Z,7.81
2023-03-05T17:14:07.072Z,8.14
2023-03-05T17:15:38.775Z,8.78
2023-03-05T17:17:10.167Z,9.02
2023-03-05T17:18:41.805Z,9.49
2023-03-05T17:20:13.084Z,9.88
2023-03-05T17:21:44.821Z,10.17
2023-03-05T17:23:16.788Z,10.17
2023-03-05T17:24:48.812Z,9.57
2023-03-05T17:26:20.309Z,9.66
2023-03-05T17:27:51.739Z,9.19
2023-03-05T17:29:43.576Z,9.24
2023-03-05T17:31:14.985Z,9.28
2023-03-05T17:32:47.555Z,9.10
2023-03-05T17:34:23.432Z,8.46
2023-03-05T17:35:59.519Z,7.96
2023-03-05T17:37:30.789Z,8.78
2023-03-05T17:39:02.070Z,8.72
2023-03-05T17:40:33.500Z,8.66
2023-03-05T17:42:04.820Z,9.34
2023-03-05T17:43:36.205Z,10.03
2023-03-05T17:45:07.409Z,10.24
2023-03-05T17:46:38.653Z,10.14
2023-03-05T17:48:09.999Z,10.68
2023-03-05T17:49:41.342Z,10.63
2023-03-05T17:51:12.586Z,10.90
2023-03-05T17:52:43.837Z,11.08
2023-03-05T17:54:15.069Z,10.71
2023-03-05T17:55:46.344Z,10.78
2023-03-05T17:57:18.502Z,10.52
2023-03-05T17:58:49.935Z,10.46
2023-03-05T18:00:21.202Z,10.74
2023-03-05T18:01:52.655Z,10.37
2023-03-05T18:03:24.016Z,10.69
2023-03-05T18:04:55.326Z,10.87
2023-03-05T18:06:27.190Z,11.19
2023-03-05T18:07:58.571Z,11.78
2023-03-05T18:09:29.811Z,12.50
2023-03-05T18:11:01.326Z,12.37
2023-03-05T18:12:32.625Z,12.23
2023-03-05T18:14:04.012Z,12.20
2023-03-05T18:15:35.268Z,12.66
2023-03-05T18:17:06.657Z,12.56
2023-03-05T18:18:38.804Z,12.71
2023-03-05T18:20:10.255Z,12.50
2023-03-05T18:21:41.837Z,12.34
2023-03-05T18:23:13.082Z,12.40
2023-03-05T18:24:44.719Z,12.56
2023-03-05T18:26:16.021Z,14.61
2023-03-05T18:27:47.676Z,14.11
2023-03-05T18:29:19.532Z,14.01
2023-03-05T18:30:51.054Z,13.25
2023-03-05T18:32:22.552Z,13.06
2023-03-05T18:33:53.905Z,13.02
2023-03-05T18:35:25.304Z,12.91
2023-03-05T18:36:56.604Z,12.59
2023-03-05T18:38:28.185Z,12.68
2023-03-05T18:39:59.437Z,12.63
2023-03-05T18:41:30.759Z,13.05
2023-03-05T18:43:02.072Z,12.68
2023-03-05T18:44:33.252Z,12.11
2023-03-05T18:46:04.510Z,11.34
2023-03-05T18:47:35.847Z,12.33
2023-03-05T18:49:07.161Z,12.42
2023-03-05T18:50:38.537Z,12.50
2023-03-05T18:52:10.133Z,11.78
2023-03-05T18:53:41.329Z,11.45
2023-03-05T18:55:12.755Z,12.21
2023-03-05T18:56:44.078Z,10.79
2023-03-05T18:58:20.530Z,11.19
2023-03-05T18:59:56.790Z,10.74
2023-03-05T19:01:28.172Z,11.29
2023-03-05T19:03:09.428Z,11.29
2023-03-05T19:04:51.127Z,10.75
2023-03-05T19:06:27.404Z,10.99
2023-03-05T19:08:05.101Z,10.59
2023-03-05T19:09:36.476Z,10.61
2023-03-05T19:11:17.900Z,11.38
2023-03-05T19:12:49.212Z,11.67
2023-03-05T19:14:30.781Z,12.00
2023-03-05T19:16:13.171Z,12.49
2023-03-05T19:17:44.766Z,13.48
2023-03-05T19:19:28.470Z,14.31
2023-03-05T19:20:59.748Z,16.97
2023-03-05T19:22:30.985Z,13.94
2023-03-05T19:24:12.694Z,10.12
2023-03-05T19:25:43.882Z,8.37
2023-03-05T19:27:15.156Z,9.12
2023-03-05T19:28:46.494Z,9.17
2023-03-05T19:30:17.758Z,9.48
2023-03-05T19:31:48.947Z,11.39
2023-03-05T19:33:20.292Z,12.94
2023-03-05T19:34:51.703Z,13.54
2023-03-05T19:36:22.908Z,13.86
2023-03-05T19:37:54.178Z,13.15
2023-03-05T19:39:25.506Z,13.40
2023-03-05T19:40:56.750Z,12.06
2023-03-05T19:42:28.187Z,10.66
2023-03-05T19:43:59.705Z,11.42
2023-03-05T19:45:31.150Z,11.00
2023-03-05T19:47:02.377Z,11.00
2023-03-05T19:48:33.581Z,11.03
2023-03-05T19:50:06.056Z,10.92
2023-03-05T19:51:37.421Z,9.36
2023-03-05T19:53:08.810Z,9.44
2023-03-05T19:54:40.250Z,9.60
2023-03-05T19:56:11.548Z,9.89
2023-03-05T19:57:42.885Z,9.80
2023-03-05T19:59:14.036Z,9.99
2023-03-05T20:00:45.203Z,10.33
2023-03-05T20:02:17.814Z,10.92
2023-03-05T20:03:49.829Z,10.68
2023-03-05T20:05:21.050Z,11.13
2023-03-05T20:06:52.283Z,10.96
2023-03-05T20:08:23.600Z,11.22
2023-03-05T20:09:55.386Z,11.63
2023-03-05T20:11:26.920Z,12.22
2023-03-05T20:13:00.114Z,12.65
2023-03-05T20:14:31.607Z,13.36
2023-03-05T20:16:02.944Z,14.99
2023-03-05T20:17:34.301Z,13.07
2023-03-05T20:19:05.653Z,13.48